Time;durP1;ratioP1;P1;durP2;ratioP2;P2;SDS_P1;SDS_P2;PMS_P1;PMS_P2;Temp;Humidity;BMP_temperature;BMP_pressure;BME280_temperature;BME280_humidity;BME280_pressure;Samples;Min_cycle;Max_cycle;Signal;HPM_P1;HPM_P2
2021/11/06 00:00:38;;;;;;;2.65;0.73;;;;;;;;;;4853392;29;20044;-77
2021/11/06 00:03:06;;;;;;;6.30;0.98;;;;;;;;;;4852930;29;20042;-75
2021/11/06 00:05:31;;;;;;;5.75;0.70;;;;;;;;;;4836649;29;20033;-76
2021/11/06 00:07:57;;;;;;;4.38;0.80;;;;;;;;;;4836220;29;20073;-79
2021/11/06 00:10:22;;;;;;;4.38;1.17;;;;;;;;;;4836176;29;20475;-79
2021/11/06 00:12:48;;;;;;;5.95;1.25;;;;;;;;;;4852646;29;20093;-79
2021/11/06 00:15:14;;;;;;;1.73;0.63;;;;;;;;;;4852762;29;20038;-78
2021/11/06 00:17:40;;;;;;;5.07;1.33;;;;;;;;;;4852323;29;20534;-80
2021/11/06 00:20:07;;;;;;;3.35;0.98;;;;;;;;;;4852677;29;20034;-80
2021/11/06 00:22:33;;;;;;;4.70;1.27;;;;;;;;;;4852513;29;20030;-80
2021/11/06 00:25:00;;;;;;;6.10;1.55;;;;;;;;;;4852883;29;20037;-77
2021/11/06 00:27:25;;;;;;;4.95;0.80;;;;;;;;;;4836068;29;20114;-78
2021/11/06 00:29:51;;;;;;;2.72;0.63;;;;;;;;;;4852289;29;20483;-80
2021/11/06 00:32:17;;;;;;;5.43;1.50;;;;;;;;;;4835754;29;20030;-76
2021/11/06 00:34:43;;;;;;;6.65;1.20;;;;;;;;;;4852436;29;20067;-75
2021/11/06 00:37:08;;;;;;;0.75;0.40;;;;;;;;;;4835306;29;20033;-78
2021/11/06 00:39:34;;;;;;;3.42;1.10;;;;;;;;;;4852250;29;20042;-78
2021/11/06 00:42:00;;;;;;;3.63;0.80;;;;;;;;;;4835494;29;20034;-78
2021/11/06 00:44:25;;;;;;;5.57;0.82;;;;;;;;;;4834860;29;20030;-77
2021/11/06 00:46:51;;;;;;;4.10;0.70;;;;;;;;;;4835743;29;20038;-77
2021/11/06 00:49:17;;;;;;;2.03;0.65;;;;;;;;;;4852136;29;20093;-78
2021/11/06 00:51:42;;;;;;;3.95;1.00;;;;;;;;;;4852009;29;20042;-78
2021/11/06 00:54:08;;;;;;;3.40;0.88;;;;;;;;;;4851715;29;20117;-78
2021/11/06 00:56:33;;;;;;;4.43;0.68;;;;;;;;;;4835376;29;20038;-76
2021/11/06 00:58:59;;;;;;;2.80;0.57;;;;;;;;;;4851610;29;20050;-75
2021/11/06 01:01:24;;;;;;;2.95;0.68;;;;;;;;;;4852153;29;20041;-75
2021/11/06 01:03:50;;;;;;;2.25;0.68;;;;;;;;;;4835634;29;20033;-79
2021/11/06 01:06:15;;;;;;;1.70;0.57;;;;;;;;;;4851977;29;20060;-77
2021/11/06 01:08:43;;;;;;;4.43;1.10;;;;;;;;;;4851826;29;20055;-77
2021/11/06 01:11:09;;;;;;;3.28;0.70;;;;;;;;;;4851919;29;20029;-75
2021/11/06 01:13:35;;;;;;;4.93;1.77;;;;;;;;;;4851957;29;20507;-76
2021/11/06 01:16:00;;;;;;;5.65;0.90;;;;;;;;;;4851919;29;20034;-76
2021/11/06 01:18:26;;;;;;;2.22;0.50;;;;;;;;;;4835298;29;20038;-78
2021/11/06 01:20:51;;;;;;;4.75;0.93;;;;;;;;;;4835376;29;20114;-77
2021/11/06 01:23:16;;;;;;;1.60;0.60;;;;;;;;;;4851781;29;20038;-77
2021/11/06 01:25:42;;;;;;;2.42;0.82;;;;;;;;;;4851781;29;20030;-77
2021/11/06 01:28:07;;;;;;;3.22;0.70;;;;;;;;;;4851747;29;20101;-76
2021/11/06 01:30:33;;;;;;;3.35;0.85;;;;;;;;;;4851798;29;20058;-78
2021/11/06 01:32:58;;;;;;;3.97;0.70;;;;;;;;;;4835043;29;20120;-77
2021/11/06 01:35:23;;;;;;;5.00;0.77;;;;;;;;;;4851225;29;20041;-76
2021/11/06 01:37:49;;;;;;;1.70;0.40;;;;;;;;;;4834866;29;20030;-77
2021/11/06 01:40:18;;;;;;;2.00;0.57;;;;;;;;;;4851830;29;20556;-79
2021/11/06 01:42:45;;;;;;;2.28;0.60;;;;;;;;;;4851301;29;20444;-77
2021/11/06 01:45:14;;;;;;;2.55;0.60;;;;;;;;;;4834947;29;20039;-77
2021/11/06 01:47:39;;;;;;;1.85;0.80;;;;;;;;;;4851346;29;20531;-74
2021/11/06 01:50:06;;;;;;;8.18;1.00;;;;;;;;;;4851567;29;20045;-76
2021/11/06 01:52:31;;;;;;;2.38;0.63;;;;;;;;;;4851429;29;20090;-78
2021/11/06 01:54:57;;;;;;;3.28;0.70;;;;;;;;;;4853504;29;20033;-76
2021/11/06 01:57:23;;;;;;;2.80;0.60;;;;;;;;;;4837890;29;20030;-76
2021/11/06 01:59:49;;;;;;;2.08;0.60;;;;;;;;;;4854842;29;20030;-76
2021/11/06 02:02:15;;;;;;;5.03;0.80;;;;;;;;;;4854941;29;20037;-74
2021/11/06 02:04:40;;;;;;;3.80;0.70;;;;;;;;;;4854793;29;20048;-79
2021/11/06 02:07:06;;;;;;;4.00;0.60;;;;;;;;;;4854559;29;20120;-76
2021/11/06 02:09:31;;;;;;;4.03;0.80;;;;;;;;;;4838216;29;20014;-77
2021/11/06 02:11:58;;;;;;;2.72;0.50;;;;;;;;;;4854322;29;20054;-76
2021/11/06 02:14:24;;;;;;;5.22;0.60;;;;;;;;;;4854698;29;20044;-77
2021/11/06 02:16:52;;;;;;;3.88;1.60;;;;;;;;;;4837649;29;20034;-76
2021/11/06 02:19:18;;;;;;;5.50;0.63;;;;;;;;;;4837545;29;20086;-77
2021/11/06 02:21:44;;;;;;;4.65;0.50;;;;;;;;;;4837777;29;20075;-77
2021/11/06 02:24:10;;;;;;;5.30;0.75;;;;;;;;;;4854302;29;20114;-75
2021/11/06 02:26:35;;;;;;;6.75;0.82;;;;;;;;;;4854606;29;20034;-76
2021/11/06 02:29:02;;;;;;;2.00;0.50;;;;;;;;;;4854086;29;20106;-77
2021/11/06 02:31:28;;;;;;;3.85;0.50;;;;;;;;;;4837620;29;20076;-75
2021/11/06 02:33:53;;;;;;;4.80;0.73;;;;;;;;;;4837479;29;20468;-76
2021/11/06 02:36:20;;;;;;;1.75;0.50;;;;;;;;;;4853856;29;20089;-79
2021/11/06 02:38:46;;;;;;;6.97;0.80;;;;;;;;;;4854345;29;20037;-76
2021/11/06 02:41:12;;;;;;;2.55;0.60;;;;;;;;;;4853326;29;20394;-76
2021/11/06 02:43:37;;;;;;;7.85;1.50;;;;;;;;;;4853680;29;20070;-77
2021/11/06 02:46:03;;;;;;;2.47;1.00;;;;;;;;;;4854212;29;20109;-77
2021/11/06 02:48:28;;;;;;;5.93;0.95;;;;;;;;;;4854055;29;20073;-78
2021/11/06 02:50:54;;;;;;;2.63;0.75;;;;;;;;;;4853820;29;20037;-78
2021/11/06 02:53:20;;;;;;;5.55;0.80;;;;;;;;;;4853694;29;20038;-78
2021/11/06 02:55:45;;;;;;;5.72;1.08;;;;;;;;;;4835525;29;20031;-78
2021/11/06 02:58:11;;;;;;;5.10;1.10;;;;;;;;;;4853462;29;20062;-76
2021/11/06 03:00:37;;;;;;;9.23;0.93;;;;;;;;;;4834374;29;20058;-78
2021/11/06 03:03:03;;;;;;;4.65;1.00;;;;;;;;;;4853568;29;20033;-76
2021/11/06 03:05:29;;;;;;;8.40;1.10;;;;;;;;;;4853030;29;20258;-79
2021/11/06 03:07:54;;;;;;;11.55;1.25;;;;;;;;;;4853379;29;20089;-77
2021/11/06 03:10:20;;;;;;;12.30;1.48;;;;;;;;;;4853689;29;20038;-77
2021/11/06 03:12:47;;;;;;;6.22;1.25;;;;;;;;;;4853733;29;20040;-74
2021/11/06 03:15:12;;;;;;;9.20;0.77;;;;;;;;;;4853926;29;20034;-75
2021/11/06 03:17:38;;;;;;;6.93;1.10;;;;;;;;;;4852552;29;20098;-76
2021/11/06 03:20:05;;;;;;;7.32;1.27;;;;;;;;;;4832681;29;20054;-77
2021/11/06 03:22:31;;;;;;;6.63;1.00;;;;;;;;;;4849773;29;20045;-77
2021/11/06 03:24:57;;;;;;;6.75;1.02;;;;;;;;;;4836937;29;20025;-78
2021/11/06 03:27:22;;;;;;;8.15;1.10;;;;;;;;;;4833754;29;20067;-76
2021/11/06 03:29:48;;;;;;;10.82;0.90;;;;;;;;;;4835453;29;20081;-78
2021/11/06 03:32:14;;;;;;;6.47;1.00;;;;;;;;;;4833639;29;20034;-77
2021/11/06 03:34:40;;;;;;;2.90;0.70;;;;;;;;;;4850909;29;20168;-80
2021/11/06 03:37:05;;;;;;;15.50;1.20;;;;;;;;;;4833662;29;20102;-76
2021/11/06 03:39:31;;;;;;;7.53;2.28;;;;;;;;;;4849812;29;20018;-79
2021/11/06 03:41:57;;;;;;;7.03;1.35;;;;;;;;;;4852853;29;20108;-77
2021/11/06 03:44:22;;;;;;;10.63;1.02;;;;;;;;;;4853472;29;20046;-77
2021/11/06 03:46:48;;;;;;;6.90;1.48;;;;;;;;;;4852675;29;20034;-77
2021/11/06 03:49:14;;;;;;;4.35;1.02;;;;;;;;;;4852355;29;20038;-78
2021/11/06 03:51:39;;;;;;;4.97;1.30;;;;;;;;;;4833469;29;20045;-75
2021/11/06 03:54:05;;;;;;;9.70;1.52;;;;;;;;;;4852848;29;20041;-77
2021/11/06 03:56:31;;;;;;;13.98;1.75;;;;;;;;;;4852727;29;20057;-77
2021/11/06 03:58:56;;;;;;;7.07;1.60;;;;;;;;;;4852322;29;20026;-75
2021/11/06 04:01:22;;;;;;;7.82;1.45;;;;;;;;;;4852480;29;20038;-78
2021/11/06 04:03:48;;;;;;;9.70;1.02;;;;;;;;;;4835210;29;20125;-76
2021/11/06 04:06:14;;;;;;;6.50;1.08;;;;;;;;;;4852762;29;20121;-75
2021/11/06 04:08:40;;;;;;;7.03;0.95;;;;;;;;;;4852730;29;20046;-75
2021/11/06 04:11:05;;;;;;;7.00;1.15;;;;;;;;;;4833195;29;20561;-76
2021/11/06 04:13:31;;;;;;;8.98;1.50;;;;;;;;;;4849101;29;20034;-77
2021/11/06 04:15:56;;;;;;;5.03;1.13;;;;;;;;;;4836192;29;20530;-78
2021/11/06 04:18:22;;;;;;;11.98;1.20;;;;;;;;;;4832551;29;20060;-77
2021/11/06 04:20:47;;;;;;;9.45;1.35;;;;;;;;;;4834654;29;20046;-75
2021/11/06 04:23:13;;;;;;;7.30;1.90;;;;;;;;;;4852461;29;20033;-76
2021/11/06 04:25:38;;;;;;;7.82;1.23;;;;;;;;;;4852356;29;20038;-76
2021/11/06 04:28:04;;;;;;;8.40;1.08;;;;;;;;;;4832890;29;20395;-74
2021/11/06 04:30:29;;;;;;;5.82;1.20;;;;;;;;;;4832690;29;20141;-76
2021/11/06 04:32:55;;;;;;;6.22;0.85;;;;;;;;;;4835445;29;20030;-75
2021/11/06 04:35:21;;;;;;;6.25;0.98;;;;;;;;;;4832907;29;20587;-74
2021/11/06 04:37:46;;;;;;;3.80;1.13;;;;;;;;;;4834295;29;20245;-75
2021/11/06 04:40:12;;;;;;;8.90;1.42;;;;;;;;;;4852481;29;20042;-75
2021/11/06 04:42:39;;;;;;;7.15;1.00;;;;;;;;;;4833257;29;20079;-74
2021/11/06 04:45:09;;;;;;;7.93;1.55;;;;;;;;;;4851780;29;20041;-74
2021/11/06 04:47:34;;;;;;;6.65;1.05;;;;;;;;;;4832737;29;20034;-75
2021/11/06 04:50:00;;;;;;;11.40;1.55;;;;;;;;;;4851935;29;20348;-76
2021/11/06 04:52:26;;;;;;;8.13;1.42;;;;;;;;;;4852148;29;20034;-76
2021/11/06 04:54:52;;;;;;;7.90;1.15;;;;;;;;;;4852018;29;20038;-74
2021/11/06 04:57:17;;;;;;;9.93;1.13;;;;;;;;;;4832617;29;20034;-75
2021/11/06 04:59:43;;;;;;;5.20;1.27;;;;;;;;;;4833821;29;20039;-74
2021/11/06 05:02:08;;;;;;;9.23;1.20;;;;;;;;;;4832382;29;20031;-74
2021/11/06 05:04:34;;;;;;;9.05;1.40;;;;;;;;;;4849082;29;20037;-74
2021/11/06 05:06:59;;;;;;;5.85;0.90;;;;;;;;;;4852133;29;20116;-74
2021/11/06 05:09:25;;;;;;;8.25;1.20;;;;;;;;;;4852393;29;20378;-74
2021/11/06 05:11:51;;;;;;;10.73;1.38;;;;;;;;;;4851776;29;20034;-74
2021/11/06 05:14:17;;;;;;;5.93;1.25;;;;;;;;;;4832297;29;20034;-74
2021/11/06 05:16:42;;;;;;;8.55;1.00;;;;;;;;;;4849812;29;20030;-75
2021/11/06 05:19:08;;;;;;;6.30;1.40;;;;;;;;;;4851387;29;20042;-76
2021/11/06 05:21:37;;;;;;;7.43;1.05;;;;;;;;;;4851656;29;20133;-75
2021/11/06 05:24:05;;;;;;;7.65;0.93;;;;;;;;;;4832264;29;20026;-75
2021/11/06 05:26:30;;;;;;;8.27;1.15;;;;;;;;;;4848189;29;20396;-76
2021/11/06 05:28:56;;;;;;;8.27;1.15;;;;;;;;;;4852216;29;20443;-74
2021/11/06 05:31:22;;;;;;;8.85;1.30;;;;;;;;;;4855142;29;20061;-75
2021/11/06 05:33:47;;;;;;;7.80;1.13;;;;;;;;;;4837439;29;20058;-74
2021/11/06 05:36:12;;;;;;;7.10;1.00;;;;;;;;;;4855425;29;20033;-74
2021/11/06 05:38:38;;;;;;;7.93;1.10;;;;;;;;;;4855063;29;20025;-75
2021/11/06 05:41:04;;;;;;;9.20;1.10;;;;;;;;;;4835659;29;20031;-75
2021/11/06 05:43:29;;;;;;;5.70;1.15;;;;;;;;;;4851505;29;20065;-75
2021/11/06 05:45:54;;;;;;;10.30;1.15;;;;;;;;;;4838345;29;20113;-75
2021/11/06 05:48:20;;;;;;;5.63;1.05;;;;;;;;;;4835345;29;20048;-74
2021/11/06 05:50:45;;;;;;;6.50;1.23;;;;;;;;;;4853681;29;20029;-75
2021/11/06 05:53:11;;;;;;;9.05;0.95;;;;;;;;;;4835104;29;20038;-75
2021/11/06 05:55:37;;;;;;;5.97;1.08;;;;;;;;;;4852333;29;20034;-74
2021/11/06 05:58:03;;;;;;;7.22;1.10;;;;;;;;;;4854887;29;20511;-76
2021/11/06 06:00:28;;;;;;;6.68;1.15;;;;;;;;;;4835091;29;20041;-75
2021/11/06 06:02:54;;;;;;;5.57;0.80;;;;;;;;;;4854406;29;20034;-75
2021/11/06 06:05:19;;;;;;;1.95;0.70;;;;;;;;;;4835421;29;20080;-75
2021/11/06 06:07:45;;;;;;;8.82;0.93;;;;;;;;;;4852946;29;20070;-75
2021/11/06 06:10:13;;;;;;;5.57;1.05;;;;;;;;;;4835186;29;20063;-74
2021/11/06 06:12:40;;;;;;;11.63;1.13;;;;;;;;;;4835781;29;20034;-74
2021/11/06 06:15:06;;;;;;;6.70;1.20;;;;;;;;;;4835573;29;20034;-76
2021/11/06 06:17:31;;;;;;;7.28;1.48;;;;;;;;;;4851523;29;20045;-76
2021/11/06 06:19:56;;;;;;;8.32;1.00;;;;;;;;;;4838049;29;20034;-76
2021/11/06 06:22:23;;;;;;;7.03;1.10;;;;;;;;;;4854609;29;20069;-76
2021/11/06 06:24:49;;;;;;;8.15;1.23;;;;;;;;;;4854641;29;20032;-75
2021/11/06 06:27:15;;;;;;;7.95;1.08;;;;;;;;;;4854670;29;20040;-75
2021/11/06 06:29:40;;;;;;;4.28;0.70;;;;;;;;;;4838124;29;20077;-74
2021/11/06 06:32:06;;;;;;;5.28;0.80;;;;;;;;;;4854990;29;20460;-74
2021/11/06 06:34:31;;;;;;;6.05;1.30;;;;;;;;;;4854627;29;20041;-73
2021/11/06 06:36:56;;;;;;;9.48;1.48;;;;;;;;;;4854663;29;20133;-74
2021/11/06 06:39:22;;;;;;;6.68;1.08;;;;;;;;;;4854793;29;20022;-73
2021/11/06 06:41:47;;;;;;;9.45;1.23;;;;;;;;;;4853775;29;20030;-74
2021/11/06 06:44:12;;;;;;;8.45;1.45;;;;;;;;;;4854831;29;20033;-77
2021/11/06 06:46:38;;;;;;;8.85;1.85;;;;;;;;;;4854744;29;20041;-75
2021/11/06 06:49:03;;;;;;;9.70;1.85;;;;;;;;;;4854565;29;20034;-75
2021/11/06 06:51:29;;;;;;;11.48;1.98;;;;;;;;;;4837762;29;20034;-77
2021/11/06 06:53:54;;;;;;;8.43;1.25;;;;;;;;;;4837111;29;20034;-77
2021/11/06 06:56:19;;;;;;;11.52;1.65;;;;;;;;;;4837234;29;20045;-76
2021/11/06 06:58:45;;;;;;;19.65;2.38;;;;;;;;;;4854088;29;20038;-76
2021/11/06 07:01:11;;;;;;;11.43;1.45;;;;;;;;;;4854395;29;20057;-77
2021/11/06 07:03:36;;;;;;;10.23;1.50;;;;;;;;;;4854356;29;20055;-78
2021/11/06 07:06:05;;;;;;;9.98;1.65;;;;;;;;;;4837758;29;20030;-77
2021/11/06 07:08:30;;;;;;;5.13;1.00;;;;;;;;;;4837270;29;20042;-82
2021/11/06 07:10:55;;;;;;;10.23;1.98;;;;;;;;;;4837386;29;20054;-77
2021/11/06 07:13:21;;;;;;;8.10;1.20;;;;;;;;;;4853603;29;20078;-77
2021/11/06 07:15:48;;;;;;;10.70;1.60;;;;;;;;;;4853868;29;20026;-76
2021/11/06 07:18:15;;;;;;;11.25;1.45;;;;;;;;;;4853654;29;20038;-76
2021/11/06 07:20:41;;;;;;;11.05;2.03;;;;;;;;;;4837103;29;20423;-77
2021/11/06 07:23:06;;;;;;;11.43;1.30;;;;;;;;;;4853211;29;20037;-77
2021/11/06 07:25:32;;;;;;;14.52;1.80;;;;;;;;;;4853294;29;20038;-77
2021/11/06 07:27:58;;;;;;;6.57;1.35;;;;;;;;;;4853129;29;20042;-76
2021/11/06 07:30:24;;;;;;;13.38;2.13;;;;;;;;;;4837011;29;20145;-76
2021/11/06 07:32:50;;;;;;;11.60;1.75;;;;;;;;;;4853369;29;20034;-77
2021/11/06 07:35:15;;;;;;;12.18;1.55;;;;;;;;;;4836940;29;20026;-76
2021/11/06 07:37:48;;;;;;;8.35;1.20;;;;;;;;;;4836949;29;20470;-75
2021/11/06 07:40:14;;;;;;;13.35;1.90;;;;;;;;;;4853447;29;20033;-75
2021/11/06 07:42:41;;;;;;;9.52;1.40;;;;;;;;;;4836745;29;20247;-75
2021/11/06 07:45:09;;;;;;;13.93;2.03;;;;;;;;;;4853541;29;20038;-76
2021/11/06 07:47:34;;;;;;;7.47;1.00;;;;;;;;;;4853063;29;20049;-76
2021/11/06 07:50:00;;;;;;;9.10;1.65;;;;;;;;;;4853459;29;20059;-76
2021/11/06 07:52:26;;;;;;;5.90;1.20;;;;;;;;;;4853122;29;20061;-76
2021/11/06 07:54:51;;;;;;;9.98;1.60;;;;;;;;;;4853201;29;20022;-76
2021/11/06 07:57:17;;;;;;;8.88;1.45;;;;;;;;;;4853128;29;20360;-76
2021/11/06 07:59:42;;;;;;;4.93;1.17;;;;;;;;;;4853208;29;20061;-77
2021/11/06 08:02:08;;;;;;;6.50;1.45;;;;;;;;;;4836655;29;20034;-75
2021/11/06 08:04:34;;;;;;;12.23;1.20;;;;;;;;;;4853205;29;20038;-75
2021/11/06 08:06:59;;;;;;;5.10;1.10;;;;;;;;;;4836865;29;20707;-75
2021/11/06 08:09:25;;;;;;;7.20;1.40;;;;;;;;;;4836584;29;20041;-76
2021/11/06 08:11:50;;;;;;;8.13;1.08;;;;;;;;;;4836546;29;20033;-78
2021/11/06 08:14:16;;;;;;;6.38;1.27;;;;;;;;;;4836482;29;20034;-77
2021/11/06 08:16:43;;;;;;;4.28;0.95;;;;;;;;;;4852836;29;20041;-78
2021/11/06 08:19:12;;;;;;;8.55;1.40;;;;;;;;;;4852510;29;20026;-76
2021/11/06 08:21:37;;;;;;;6.65;1.33;;;;;;;;;;4852612;29;20055;-76
2021/11/06 08:24:03;;;;;;;11.85;1.55;;;;;;;;;;4852811;29;20038;-76
2021/11/06 08:26:28;;;;;;;10.77;2.05;;;;;;;;;;4836468;29;20034;-76
2021/11/06 08:28:54;;;;;;;8.85;1.48;;;;;;;;;;4836220;29;20034;-78
2021/11/06 08:31:20;;;;;;;11.50;1.52;;;;;;;;;;4852895;29;20427;-75
2021/11/06 08:33:46;;;;;;;9.05;1.58;;;;;;;;;;4836138;29;20038;-76
2021/11/06 08:36:12;;;;;;;8.00;1.38;;;;;;;;;;4853029;29;20121;-74
2021/11/06 08:38:38;;;;;;;10.20;3.70;;;;;;;;;;4852775;29;20038;-74
2021/11/06 08:41:03;;;;;;;12.88;3.28;;;;;;;;;;4852207;29;20531;-76
2021/11/06 08:43:30;;;;;;;7.65;1.58;;;;;;;;;;4851073;29;20052;-75
2021/11/06 08:45:56;;;;;;;7.78;1.17;;;;;;;;;;4851915;29;20083;-76
2021/11/06 08:48:22;;;;;;;5.38;1.17;;;;;;;;;;4852571;29;20036;-74
2021/11/06 08:50:47;;;;;;;3.70;0.93;;;;;;;;;;4852776;29;20058;-75
2021/11/06 08:53:14;;;;;;;8.52;1.30;;;;;;;;;;4836073;29;20113;-74
2021/11/06 08:55:40;;;;;;;9.32;1.20;;;;;;;;;;4836350;29;20165;-74
2021/11/06 08:58:05;;;;;;;5.63;1.05;;;;;;;;;;4836037;29;20087;-75
2021/11/06 09:00:39;;;;;;;5.85;1.05;;;;;;;;;;4835621;29;20040;-76
2021/11/06 09:03:13;;;;;;;7.75;1.08;;;;;;;;;;4852122;29;20029;-74
2021/11/06 09:05:40;;;;;;;6.38;0.95;;;;;;;;;;4852525;29;20048;-76
2021/11/06 09:08:06;;;;;;;10.70;1.23;;;;;;;;;;4852298;29;20038;-74
2021/11/06 09:10:32;;;;;;;8.40;1.20;;;;;;;;;;4836159;29;20049;-75
2021/11/06 09:12:58;;;;;;;6.00;1.15;;;;;;;;;;4852305;29;20026;-75
2021/11/06 09:15:24;;;;;;;5.40;1.33;;;;;;;;;;4852316;29;20032;-74
2021/11/06 09:17:50;;;;;;;7.13;1.42;;;;;;;;;;4835879;29;20395;-74
2021/11/06 09:20:16;;;;;;;6.80;1.08;;;;;;;;;;4835790;29;20038;-74
2021/11/06 09:22:41;;;;;;;9.38;2.25;;;;;;;;;;4835742;29;20162;-75
2021/11/06 09:25:09;;;;;;;6.10;1.17;;;;;;;;;;4852592;29;20034;-73
2021/11/06 09:27:34;;;;;;;11.52;1.73;;;;;;;;;;4835343;29;20069;-75
2021/11/06 09:30:00;;;;;;;7.95;1.20;;;;;;;;;;4852119;29;20110;-74
2021/11/06 09:32:25;;;;;;;4.63;1.05;;;;;;;;;;4852044;29;20038;-74
2021/11/06 09:34:51;;;;;;;13.65;1.90;;;;;;;;;;4852262;29;20094;-73
2021/11/06 09:37:16;;;;;;;8.38;2.13;;;;;;;;;;4852036;29;20058;-74
2021/11/06 09:39:41;;;;;;;4.80;1.10;;;;;;;;;;4852318;29;20034;-74
2021/11/06 09:42:07;;;;;;;5.50;0.80;;;;;;;;;;4852163;29;20044;-73
2021/11/06 09:44:37;;;;;;;8.35;1.15;;;;;;;;;;4835532;29;20035;-73
2021/11/06 09:47:08;;;;;;;7.95;1.30;;;;;;;;;;4851724;29;20491;-75
2021/11/06 09:49:33;;;;;;;9.93;1.58;;;;;;;;;;4851809;29;20038;-73
2021/11/06 09:51:59;;;;;;;4.95;1.02;;;;;;;;;;4851987;29;20122;-73
2021/11/06 09:54:24;;;;;;;8.90;1.17;;;;;;;;;;4852120;29;20034;-73
2021/11/06 09:56:50;;;;;;;5.10;0.63;;;;;;;;;;4835342;29;20042;-74
2021/11/06 09:59:15;;;;;;;9.25;1.25;;;;;;;;;;4851955;29;20026;-73
2021/11/06 10:01:41;;;;;;;6.82;1.10;;;;;;;;;;4851910;29;20258;-73
2021/11/06 10:04:12;;;;;;;6.47;1.13;;;;;;;;;;4851851;29;20041;-74
2021/11/06 10:06:44;;;;;;;5.45;0.85;;;;;;;;;;4851943;29;20026;-74
2021/11/06 10:09:16;;;;;;;7.75;1.17;;;;;;;;;;4835642;29;20053;-73
2021/11/06 10:11:47;;;;;;;10.48;1.55;;;;;;;;;;4851983;29;20030;-75
2021/11/06 10:14:23;;;;;;;10.85;1.83;;;;;;;;;;4852132;29;20030;-76
2021/11/06 10:16:55;;;;;;;5.30;1.10;;;;;;;;;;4854942;29;20034;-74
2021/11/06 10:19:26;;;;;;;10.63;1.02;;;;;;;;;;4838606;29;20048;-74
2021/11/06 10:22:11;;;;;;;7.57;1.45;;;;;;;;;;4855179;29;20030;-74
2021/11/06 10:24:39;;;;;;;5.05;1.00;;;;;;;;;;4838634;29;20037;-74
2021/11/06 10:27:34;;;;;;;12.68;1.63;;;;;;;;;;4854916;29;20101;-74
2021/11/06 10:30:08;;;;;;;4.63;1.15;;;;;;;;;;4838611;29;20284;-75
2021/11/06 10:32:35;;;;;;;6.00;1.80;;;;;;;;;;4854925;29;20030;-75
2021/11/06 10:35:16;;;;;;;8.50;1.58;;;;;;;;;;4838228;29;20038;-75
2021/11/06 10:37:43;;;;;;;5.90;1.17;;;;;;;;;;4854720;29;20384;-73
2021/11/06 10:40:10;;;;;;;4.97;0.90;;;;;;;;;;4854850;29;20052;-76
2021/11/06 10:42:52;;;;;;;10.35;1.23;;;;;;;;;;4854706;29;20472;-74
2021/11/06 10:45:21;;;;;;;3.08;0.73;;;;;;;;;;4838214;29;20089;-76
2021/11/06 10:47:53;;;;;;;10.90;1.48;;;;;;;;;;4854645;29;20388;-74
2021/11/06 10:50:41;;;;;;;8.38;1.63;;;;;;;;;;4854872;29;20098;-75
2021/11/06 10:53:07;;;;;;;6.82;1.70;;;;;;;;;;4854314;29;20037;-75
2021/11/06 10:55:38;;;;;;;5.32;0.85;;;;;;;;;;4854732;29;20117;-75
2021/11/06 10:58:05;;;;;;;7.97;1.00;;;;;;;;;;4854228;29;20091;-75
2021/11/06 11:00:30;;;;;;;4.45;1.30;;;;;;;;;;4837826;29;20048;-72
2021/11/06 11:03:27;;;;;;;7.22;0.93;;;;;;;;;;4854174;29;20258;-76
2021/11/06 11:05:53;;;;;;;7.72;1.13;;;;;;;;;;4837585;29;20029;-75
2021/11/06 11:08:19;;;;;;;5.28;0.90;;;;;;;;;;4837436;29;20443;-74
2021/11/06 11:10:45;;;;;;;7.13;1.35;;;;;;;;;;4854129;29;20034;-75
2021/11/06 11:13:16;;;;;;;6.60;1.13;;;;;;;;;;4853959;29;20041;-76
2021/11/06 11:15:50;;;;;;;7.47;1.13;;;;;;;;;;4854046;29;20448;-75
2021/11/06 11:18:28;;;;;;;5.88;1.23;;;;;;;;;;4854108;29;20033;-72
2021/11/06 11:20:54;;;;;;;7.90;1.88;;;;;;;;;;4837589;29;20042;-75
2021/11/06 11:23:22;;;;;;;3.95;0.80;;;;;;;;;;4854166;29;20033;-73
2021/11/06 11:25:48;;;;;;;5.25;0.80;;;;;;;;;;4837674;29;20030;-74
2021/11/06 11:28:13;;;;;;;5.38;0.80;;;;;;;;;;4853311;29;20058;-74
2021/11/06 11:30:40;;;;;;;3.85;0.60;;;;;;;;;;4853838;29;20053;-73
2021/11/06 11:33:05;;;;;;;3.05;0.57;;;;;;;;;;4853820;29;20125;-75
2021/11/06 11:35:31;;;;;;;3.30;0.50;;;;;;;;;;4837353;29;20034;-75
2021/11/06 11:37:59;;;;;;;3.72;0.40;;;;;;;;;;4853714;29;20038;-75
2021/11/06 11:40:33;;;;;;;3.10;0.60;;;;;;;;;;4853802;29;20034;-74
2021/11/06 11:43:17;;;;;;;3.45;0.70;;;;;;;;;;4836815;29;20050;-76
2021/11/06 11:45:55;;;;;;;4.30;0.73;;;;;;;;;;4853468;29;20432;-75
2021/11/06 11:48:23;;;;;;;3.45;0.45;;;;;;;;;;4853391;29;20294;-73
2021/11/06 11:50:56;;;;;;;2.25;0.52;;;;;;;;;;4836966;29;20101;-75
2021/11/06 11:53:28;;;;;;;4.05;0.57;;;;;;;;;;4853388;29;20029;-73
2021/11/06 11:56:05;;;;;;;3.97;0.60;;;;;;;;;;4837132;29;20094;-75
2021/11/06 11:58:37;;;;;;;3.95;0.52;;;;;;;;;;4853259;29;20037;-75
2021/11/06 12:01:04;;;;;;;2.80;0.85;;;;;;;;;;4853319;29;20044;-76
2021/11/06 12:03:33;;;;;;;2.00;0.40;;;;;;;;;;4853443;29;20026;-74
2021/11/06 12:06:00;;;;;;;3.03;0.88;;;;;;;;;;4853531;29;20026;-74
2021/11/06 12:08:30;;;;;;;2.50;0.52;;;;;;;;;;4836603;29;20040;-76
2021/11/06 12:11:00;;;;;;;2.72;0.70;;;;;;;;;;4853116;29;20045;-75
2021/11/06 12:13:28;;;;;;;1.85;0.50;;;;;;;;;;4852348;29;20037;-75
2021/11/06 12:15:56;;;;;;;1.08;0.20;;;;;;;;;;4836457;29;20067;-73
2021/11/06 12:18:40;;;;;;;1.35;0.40;;;;;;;;;;4853187;29;20104;-75
2021/11/06 12:21:15;;;;;;;3.65;0.60;;;;;;;;;;4836828;29;20066;-73
2021/11/06 12:24:10;;;;;;;4.82;0.60;;;;;;;;;;4853090;29;20038;-74
2021/11/06 12:26:56;;;;;;;1.73;0.50;;;;;;;;;;4843422;29;20058;-75
2021/11/06 12:29:36;;;;;;;2.53;0.47;;;;;;;;;;4852268;29;20033;-75
2021/11/06 12:32:34;;;;;;;2.35;0.50;;;;;;;;;;4852543;29;20141;-75
2021/11/06 12:35:17;;;;;;;1.98;0.45;;;;;;;;;;4835566;29;20041;-75
2021/11/06 12:37:47;;;;;;;3.10;0.57;;;;;;;;;;4852403;29;20051;-74
2021/11/06 12:40:15;;;;;;;3.53;0.75;;;;;;;;;;4852026;29;20523;-75
2021/11/06 12:43:03;;;;;;;3.17;0.50;;;;;;;;;;4852273;29;20041;-75
2021/11/06 12:45:29;;;;;;;1.75;0.73;;;;;;;;;;4852568;29;20289;-75
2021/11/06 12:48:11;;;;;;;2.75;0.40;;;;;;;;;;4852460;29;20044;-75
2021/11/06 12:50:40;;;;;;;2.63;0.40;;;;;;;;;;4836091;29;20026;-76
2021/11/06 12:53:05;;;;;;;2.80;0.70;;;;;;;;;;4835701;29;20026;-77
2021/11/06 12:55:34;;;;;;;3.88;0.73;;;;;;;;;;4836355;29;20077;-77
2021/11/06 12:58:01;;;;;;;1.15;0.40;;;;;;;;;;4835343;29;20499;-76
2021/11/06 13:00:32;;;;;;;4.85;0.60;;;;;;;;;;4852752;29;20033;-77
2021/11/06 13:03:00;;;;;;;2.95;0.35;;;;;;;;;;4835795;29;20034;-77
2021/11/06 13:05:39;;;;;;;2.38;0.40;;;;;;;;;;4852550;29;20069;-76
2021/11/06 13:08:12;;;;;;;1.83;0.50;;;;;;;;;;4852197;29;20045;-77
2021/11/06 13:10:39;;;;;;;2.03;0.55;;;;;;;;;;4852437;29;20065;-76
2021/11/06 13:13:10;;;;;;;4.40;0.65;;;;;;;;;;4851950;29;20034;-75
2021/11/06 13:15:42;;;;;;;4.38;0.60;;;;;;;;;;4851922;29;20034;-76
2021/11/06 13:18:09;;;;;;;3.22;0.85;;;;;;;;;;4851884;29;20030;-76
2021/11/06 13:20:36;;;;;;;4.32;0.75;;;;;;;;;;4852419;29;20046;-77
2021/11/06 13:23:01;;;;;;;4.28;0.60;;;;;;;;;;4852268;29;20036;-76
2021/11/06 13:25:41;;;;;;;3.13;0.80;;;;;;;;;;4835974;29;20097;-76
2021/11/06 13:28:22;;;;;;;4.15;0.50;;;;;;;;;;4852139;29;20114;-75
2021/11/06 13:30:59;;;;;;;1.48;0.60;;;;;;;;;;4852252;29;20129;-77
2021/11/06 13:33:40;;;;;;;2.58;0.50;;;;;;;;;;4852326;29;20038;-76
2021/11/06 13:36:09;;;;;;;4.30;0.50;;;;;;;;;;4852222;29;20037;-76
2021/11/06 13:39:00;;;;;;;3.13;0.40;;;;;;;;;;4835250;29;20034;-77
2021/11/06 13:41:33;;;;;;;2.30;0.50;;;;;;;;;;4852336;29;20041;-78
2021/11/06 13:44:02;;;;;;;2.78;0.57;;;;;;;;;;4852275;29;20034;-77
2021/11/06 13:46:48;;;;;;;3.55;0.90;;;;;;;;;;4852247;29;20053;-76
2021/11/06 13:49:17;;;;;;;3.08;0.90;;;;;;;;;;4835634;29;20076;-76
2021/11/06 13:51:45;;;;;;;1.88;0.60;;;;;;;;;;4855186;29;20125;-76
2021/11/06 13:54:14;;;;;;;3.90;0.98;;;;;;;;;;4855980;29;20045;-77
2021/11/06 13:56:54;;;;;;;5.28;0.85;;;;;;;;;;4838984;29;20046;-77
2021/11/06 13:59:26;;;;;;;4.95;0.77;;;;;;;;;;4855483;29;20045;-76
2021/11/06 14:01:52;;;;;;;1.58;0.50;;;;;;;;;;4855495;29;20692;-75
2021/11/06 14:04:19;;;;;;;5.53;0.65;;;;;;;;;;4855571;29;20230;-75
2021/11/06 14:06:47;;;;;;;4.50;0.60;;;;;;;;;;4855272;29;20041;-76
2021/11/06 14:09:16;;;;;;;3.08;0.70;;;;;;;;;;4855334;29;20121;-76
2021/11/06 14:12:02;;;;;;;1.60;0.40;;;;;;;;;;4855317;29;20041;-76
2021/11/06 14:14:50;;;;;;;1.42;0.45;;;;;;;;;;4855524;29;20077;-77
2021/11/06 14:17:15;;;;;;;4.43;0.80;;;;;;;;;;4855055;29;20034;-76
2021/11/06 14:19:58;;;;;;;3.10;0.50;;;;;;;;;;4855323;29;20034;-77
2021/11/06 14:22:28;;;;;;;5.05;0.65;;;;;;;;;;4855191;29;20090;-76
2021/11/06 14:25:00;;;;;;;3.53;0.63;;;;;;;;;;4855316;29;20038;-76
2021/11/06 14:27:30;;;;;;;5.18;0.88;;;;;;;;;;4854986;29;20034;-76
2021/11/06 14:30:19;;;;;;;2.85;0.50;;;;;;;;;;4838089;29;20087;-76
2021/11/06 14:33:05;;;;;;;3.20;0.63;;;;;;;;;;4854952;29;20034;-76
2021/11/06 14:35:39;;;;;;;2.17;0.55;;;;;;;;;;4838405;29;20041;-76
2021/11/06 14:38:06;;;;;;;4.97;0.88;;;;;;;;;;4854479;29;20343;-77
2021/11/06 14:40:32;;;;;;;3.40;0.57;;;;;;;;;;4838415;29;20106;-76
2021/11/06 14:43:09;;;;;;;4.78;0.68;;;;;;;;;;4837815;29;20136;-77
2021/11/06 14:45:35;;;;;;;4.07;0.68;;;;;;;;;;4854899;29;20538;-76